createdAt,value
2018-06-14T13:45:22.168Z,98676.61
2018-06-14T13:47:50.812Z,98675.59
2018-06-14T13:50:19.973Z,98673.74
2018-06-14T13:52:48.339Z,98672.69
2018-06-14T14:01:23.740Z,98661.52
2018-06-14T14:07:38.877Z,98655.38
2018-06-14T14:10:07.249Z,98650.89
2018-06-14T14:21:43.669Z,98645.74
2018-06-14T14:24:11.958Z,98636.87
2018-06-14T14:26:40.495Z,98637.09
2018-06-14T14:29:08.608Z,98633.97
2018-06-14T14:31:36.707Z,98631.42
2018-06-14T14:34:04.852Z,98621.30
2018-06-14T14:36:33.075Z,98615.49
2018-06-14T14:39:01.607Z,98618.64
2018-06-14T14:41:29.705Z,98619.78
2018-06-14T14:43:57.793Z,98616.00
2018-06-14T14:46:25.895Z,98618.74
2018-06-14T14:48:53.977Z,98620.22
2018-06-14T14:51:22.073Z,98622.48
2018-06-14T14:53:50.128Z,98617.66
2018-06-14T14:56:18.218Z,98615.06
2018-06-14T14:58:46.291Z,98611.22
2018-06-14T15:01:14.379Z,98608.81
2018-06-14T15:03:42.456Z,98612.26
2018-06-14T15:06:10.532Z,98610.89
2018-06-14T15:08:38.616Z,98614.66
2018-06-14T15:11:06.720Z,98608.48
2018-06-14T15:13:34.813Z,98613.37
2018-06-14T15:16:02.916Z,98612.53
2018-06-14T15:18:31.006Z,98614.72
2018-06-14T15:20:59.230Z,98611.47
2018-06-14T15:23:27.351Z,98613.10
2018-06-14T15:25:56.187Z,98613.96
2018-06-14T15:28:24.642Z,98608.68
2018-06-14T15:30:52.700Z,98606.61
2018-06-14T15:33:21.055Z,98609.76
2018-06-14T15:35:49.145Z,98604.12
2018-06-14T15:38:17.257Z,98602.16
2018-06-14T15:40:45.336Z,98604.08
2018-06-14T15:43:13.765Z,98609.83
2018-06-14T15:45:41.833Z,98608.23
2018-06-14T15:48:09.913Z,98602.88
2018-06-14T15:50:38.295Z,98598.45
2018-06-14T15:53:06.666Z,98598.64
2018-06-14T15:58:26.152Z,98603.09
2018-06-14T16:00:54.392Z,98608.70
2018-06-14T16:03:22.472Z,98603.09
2018-06-14T16:05:50.557Z,98601.75
2018-06-14T16:08:18.633Z,98601.58
2018-06-14T16:10:46.691Z,98613.07
2018-06-14T16:13:14.881Z,98616.73
2018-06-14T16:15:42.955Z,98619.36
2018-06-14T16:18:11.037Z,98609.33
2018-06-14T16:20:39.177Z,98614.27
2018-06-14T16:23:07.588Z,98609.24
2018-06-14T16:25:35.669Z,98616.75
2018-06-14T16:28:03.781Z,98611.88
2018-06-14T16:30:32.063Z,98601.55
2018-06-14T16:33:00.111Z,98609.91
2018-06-14T16:35:28.645Z,98610.75
2018-06-14T16:37:56.731Z,98607.33
2018-06-14T16:40:24.849Z,98608.19
2018-06-14T16:42:53.012Z,98606.63
2018-06-14T16:45:21.080Z,98612.84
2018-06-14T16:47:49.152Z,98606.52
2018-06-14T16:50:17.483Z,98606.48
2018-06-14T16:52:45.575Z,98606.87
2018-06-14T16:55:13.676Z,98605.36
2018-06-14T16:57:41.751Z,98600.94
2018-06-14T17:00:09.842Z,98599.97
2018-06-14T17:02:37.916Z,98610.27
2018-06-14T17:05:06.068Z,98613.20
2018-06-14T17:07:34.085Z,98610.84
2018-06-14T17:10:02.584Z,98608.53
2018-06-14T17:12:30.654Z,98606.11
2018-06-14T17:14:59.660Z,98599.89
2018-06-14T17:17:27.745Z,98608.58
2018-06-14T17:19:56.864Z,98610.39
2018-06-14T17:22:30.453Z,98601.46
2018-06-14T17:24:58.528Z,98607.36
2018-06-14T17:27:26.698Z,98608.47
2018-06-14T17:29:55.093Z,98612.08
2018-06-14T17:32:23.167Z,98609.45
2018-06-14T17:34:51.356Z,98610.62
2018-06-14T17:37:19.424Z,98612.63
2018-06-14T17:39:47.838Z,98620.30
2018-06-14T17:42:15.937Z,98620.10
2018-06-14T17:47:47.124Z,98624.55
2018-06-14T17:50:15.285Z,98632.88
2018-06-14T17:52:43.296Z,98633.13
